createdAt,value
2019-04-30T00:28:31.117Z,99.90
2019-04-30T00:31:08.245Z,99.90
2019-04-30T00:33:38.851Z,99.90
2019-04-30T00:36:19.675Z,99.90
2019-04-30T00:38:51.143Z,99.90
2019-04-30T00:41:21.726Z,99.90
2019-04-30T00:43:57.425Z,99.90
2019-04-30T00:46:32.643Z,99.90
2019-04-30T00:49:09.787Z,99.90
2019-04-30T00:51:45.382Z,99.90
2019-04-30T00:54:22.513Z,99.90
2019-04-30T00:57:03.759Z,99.90
2019-04-30T00:59:30.527Z,99.90
2019-04-30T01:02:11.281Z,99.90
2019-04-30T01:04:45.146Z,99.90
2019-04-30T01:07:15.925Z,99.90
2019-04-30T01:09:49.825Z,99.90
2019-04-30T01:12:27.791Z,99.90
2019-04-30T01:14:52.218Z,99.90
2019-04-30T01:17:22.704Z,99.90
2019-04-30T01:19:54.595Z,99.90
2019-04-30T01:22:31.123Z,99.90
2019-04-30T01:25:01.293Z,99.90
2019-04-30T01:27:31.905Z,99.90
2019-04-30T01:30:03.794Z,99.90
2019-04-30T01:32:34.372Z,99.90
2019-04-30T01:35:05.580Z,99.90
2019-04-30T01:37:38.571Z,99.90
2019-04-30T01:40:13.572Z,99.90
2019-04-30T01:42:48.026Z,99.90
2019-04-30T01:45:13.692Z,99.90
2019-04-30T01:47:44.329Z,99.90
2019-04-30T01:50:16.180Z,99.90
2019-04-30T01:52:52.801Z,99.90
2019-04-30T01:55:46.667Z,99.90
2019-04-30T01:58:23.635Z,99.90
2019-04-30T02:00:57.037Z,99.90
2019-04-30T02:03:29.219Z,99.90
2019-04-30T02:06:00.200Z,99.90
2019-04-30T02:08:30.900Z,99.90
2019-04-30T02:11:02.423Z,99.90
2019-04-30T02:13:34.575Z,99.90
2019-04-30T02:16:06.063Z,99.90
2019-04-30T02:18:39.404Z,99.90
2019-04-30T02:21:12.055Z,99.90
2019-04-30T02:23:42.585Z,99.90
2019-04-30T02:26:13.178Z,99.90
2019-04-30T02:28:43.731Z,99.90
2019-04-30T02:31:14.328Z,99.90
2019-04-30T02:33:50.093Z,99.90
2019-04-30T02:36:41.937Z,99.90
2019-04-30T02:39:12.544Z,99.90
2019-04-30T02:41:44.309Z,99.90
2019-04-30T02:44:15.482Z,99.90
2019-04-30T02:46:50.311Z,99.90
2019-04-30T02:49:21.054Z,99.90
2019-04-30T02:51:54.364Z,99.90
2019-04-30T02:54:30.254Z,99.90
2019-04-30T02:57:11.781Z,99.90
2019-04-30T03:00:00.797Z,99.90
2019-04-30T03:02:33.210Z,99.90
2019-04-30T03:05:04.975Z,99.90
2019-04-30T03:07:35.648Z,99.90
2019-04-30T03:10:10.079Z,99.90
2019-04-30T03:12:40.837Z,99.90
2019-04-30T03:15:11.930Z,99.90
2019-04-30T03:17:51.667Z,99.90
2019-04-30T03:20:53.986Z,99.90
2019-04-30T03:23:24.547Z,99.90
2019-04-30T03:25:55.130Z,99.90
2019-04-30T03:28:25.924Z,99.90
2019-04-30T03:30:57.649Z,99.90
2019-04-30T03:33:32.732Z,99.90
2019-04-30T03:36:02.562Z,99.90
2019-04-30T03:38:33.879Z,99.90
2019-04-30T03:41:04.692Z,99.90
2019-04-30T03:43:35.289Z,99.90
2019-04-30T03:46:05.937Z,99.90
2019-04-30T03:48:39.390Z,99.90
2019-04-30T03:51:10.671Z,99.90
2019-04-30T03:53:42.694Z,99.90
2019-04-30T03:56:13.157Z,99.90
2019-04-30T03:58:45.633Z,99.90
2019-04-30T04:01:23.921Z,99.90
2019-04-30T04:04:25.766Z,99.90
2019-04-30T04:07:14.104Z,99.90
2019-04-30T04:09:50.031Z,99.90
2019-04-30T04:12:24.605Z,99.90
2019-04-30T04:14:55.323Z,99.90
2019-04-30T04:17:26.071Z,99.90
2019-04-30T04:19:59.557Z,99.90
2019-04-30T04:22:30.687Z,99.90
2019-04-30T04:25:01.574Z,99.90
2019-04-30T04:27:32.275Z,99.90
2019-04-30T04:30:02.796Z,99.90
2019-04-30T04:32:33.886Z,99.90
2019-04-30T04:35:04.486Z,99.90
2019-04-30T04:37:35.037Z,99.90
2019-04-30T04:40:06.299Z,99.90
2019-04-30T04:42:39.577Z,99.90
2019-04-30T04:45:11.505Z,99.90
2019-04-30T04:47:42.445Z,99.90
2019-04-30T04:50:13.559Z,99.90
2019-04-30T04:52:44.193Z,99.90
2019-04-30T04:55:14.921Z,99.90
2019-04-30T04:57:45.444Z,99.90
2019-04-30T05:00:16.003Z,99.90
2019-04-30T05:02:55.992Z,99.90
2019-04-30T05:05:26.497Z,99.90
2019-04-30T05:07:58.435Z,99.90
2019-04-30T05:10:29.710Z,99.90
2019-04-30T05:13:00.230Z,99.90
2019-04-30T05:15:39.043Z,99.90
2019-04-30T05:18:23.198Z,99.90
2019-04-30T05:20:55.621Z,99.90
2019-04-30T05:23:49.252Z,99.90
2019-04-30T05:29:46.255Z,99.90
2019-04-30T05:33:28.777Z,99.90
2019-04-30T05:43:59.181Z,99.90
2019-04-30T05:46:31.463Z,99.90
2019-04-30T05:47:58.746Z,99.90
2019-04-30T05:49:10.012Z,99.90
2019-04-30T05:51:53.577Z,99.90
2019-04-30T05:54:46.441Z,99.90
2019-04-30T05:57:20.552Z,99.90
2019-04-30T06:04:24.214Z,99.90
2019-04-30T06:07:00.644Z,99.90
2019-04-30T06:09:50.654Z,99.90
2019-04-30T06:12:41.552Z,99.90
2019-04-30T06:19:11.530Z,99.90
2019-04-30T06:21:43.761Z,99.90
2019-04-30T06:24:39.532Z,99.90
2019-04-30T06:27:55.038Z,99.90
2019-04-30T06:30:55.665Z,99.90
2019-04-30T06:33:29.847Z,99.90
2019-04-30T06:36:53.114Z,99.90
2019-04-30T06:39:24.494Z,99.90
2019-04-30T06:42:06.902Z,99.90
2019-04-30T06:44:53.332Z,99.90
2019-04-30T06:47:32.756Z,99.90
2019-04-30T06:50:19.380Z,99.90
2019-04-30T06:53:02.276Z,99.90
2019-04-30T06:55:35.194Z,99.90
2019-04-30T06:58:14.637Z,99.90
2019-04-30T07:00:40.643Z,99.90
2019-04-30T07:03:14.411Z,99.90
2019-04-30T07:05:48.757Z,99.90
2019-04-30T07:08:46.874Z,99.90
2019-04-30T07:11:36.392Z,99.90
2019-04-30T07:14:07.118Z,99.90
2019-04-30T07:16:39.633Z,99.90
2019-04-30T07:19:10.369Z,99.90
2019-04-30T07:21:45.241Z,99.90
2019-04-30T07:24:14.929Z,99.90
2019-04-30T07:26:49.376Z,99.90
2019-04-30T07:29:20.130Z,99.90
2019-04-30T07:31:51.759Z,99.90
2019-04-30T07:34:22.557Z,99.90
2019-04-30T07:37:10.912Z,99.90
2019-04-30T07:42:03.465Z,99.90
2019-04-30T07:44:36.669Z,98.10
2019-04-30T07:47:09.504Z,96.80
2019-04-30T07:49:49.695Z,96.40
2019-04-30T07:52:13.641Z,94.90
2019-04-30T07:54:47.099Z,87.10
2019-04-30T07:57:19.273Z,81.30
2019-04-30T07:59:50.965Z,75.50
2019-04-30T08:02:24.641Z,71.50
2019-04-30T08:05:03.769Z,70.50
2019-04-30T08:07:39.090Z,71.70
2019-04-30T08:09:35.036Z,99.90
2019-04-30T08:10:10.237Z,68.90
2019-04-30T08:12:50.799Z,69.50
2019-04-30T08:15:24.537Z,73.50
2019-04-30T08:18:03.615Z,67.30
2019-04-30T08:20:29.447Z,69.30
2019-04-30T08:23:12.978Z,68.20
2019-04-30T08:25:33.580Z,64.60
2019-04-30T08:28:04.431Z,67.50
2019-04-30T08:30:45.923Z,68.70
2019-04-30T08:33:29.332Z,66.30
2019-04-30T08:36:05.662Z,64.00
2019-04-30T08:38:39.556Z,65.30
2019-04-30T08:44:21.239Z,59.50
2019-04-30T08:46:52.003Z,61.70
2019-04-30T08:49:22.756Z,59.10
2019-04-30T08:51:54.501Z,59.50
2019-04-30T08:54:29.516Z,59.20
2019-04-30T08:57:02.204Z,55.20
2019-04-30T08:59:32.939Z,59.90
2019-04-30T09:02:16.513Z,60.60
2019-04-30T09:04:46.710Z,58.00
2019-04-30T09:07:25.154Z,57.90
2019-04-30T09:09:55.780Z,59.50
2019-04-30T09:12:26.334Z,57.00
2019-04-30T09:14:59.038Z,54.10
2019-04-30T09:17:29.755Z,54.00
2019-04-30T09:20:00.571Z,55.30
2019-04-30T09:22:31.246Z,50.30
2019-04-30T09:25:02.061Z,51.70
2019-04-30T09:27:32.675Z,50.80
2019-04-30T09:30:03.224Z,49.30
2019-04-30T09:32:35.571Z,49.70
2019-04-30T09:35:06.278Z,50.80
2019-04-30T09:37:39.007Z,50.90
2019-04-30T09:40:16.205Z,49.60
2019-04-30T09:42:41.634Z,50.40
2019-04-30T09:45:12.270Z,51.00
2019-04-30T09:47:42.823Z,51.50
2019-04-30T09:50:13.411Z,49.00
2019-04-30T09:52:44.266Z,49.80
2019-04-30T09:55:15.407Z,47.10
2019-04-30T09:57:49.008Z,46.20
2019-04-30T10:00:20.324Z,45.60
2019-04-30T10:02:54.687Z,47.40
2019-04-30T10:05:58.946Z,45.50
2019-04-30T10:09:06.802Z,47.00
2019-04-30T10:11:50.265Z,44.70
2019-04-30T10:14:20.934Z,43.00
2019-04-30T10:17:13.548Z,44.50
2019-04-30T10:19:44.117Z,43.30
2019-04-30T10:22:14.700Z,43.90
2019-04-30T10:24:45.395Z,45.70
2019-04-30T10:27:16.094Z,41.80
2019-04-30T10:29:59.249Z,42.90
2019-04-30T10:32:36.865Z,45.00
2019-04-30T10:35:07.638Z,44.60
2019-04-30T10:37:39.205Z,45.30
2019-04-30T10:40:12.277Z,44.90
2019-04-30T10:42:43.042Z,43.70
2019-04-30T10:45:14.388Z,44.00
2019-04-30T10:47:45.406Z,43.50
2019-04-30T10:50:16.157Z,44.40
2019-04-30T10:52:46.827Z,43.90
2019-04-30T10:55:17.471Z,42.70
2019-04-30T10:57:49.561Z,44.60
2019-04-30T11:00:26.513Z,39.70
2019-04-30T11:02:56.879Z,43.00
2019-04-30T11:05:29.202Z,43.30
2019-04-30T11:07:59.924Z,43.00
2019-04-30T11:10:31.153Z,43.80
2019-04-30T11:13:02.000Z,40.70
2019-04-30T11:15:33.147Z,40.70
2019-04-30T11:18:05.065Z,45.00
2019-04-30T11:20:36.086Z,42.10
2019-04-30T11:23:14.257Z,39.30
2019-04-30T11:25:41.126Z,42.90
2019-04-30T11:28:12.023Z,43.20
2019-04-30T11:30:43.046Z,41.00
2019-04-30T11:33:14.231Z,40.00
2019-04-30T11:35:45.405Z,40.90
2019-04-30T11:38:15.946Z,40.00
2019-04-30T11:40:48.638Z,36.70
2019-04-30T11:43:20.167Z,38.40
2019-04-30T11:46:44.286Z,38.30
2019-04-30T11:49:14.862Z,39.10
2019-04-30T11:51:45.631Z,37.70
2019-04-30T11:54:16.247Z,39.10
2019-04-30T11:56:50.232Z,35.60
2019-04-30T11:59:19.762Z,36.40
2019-04-30T12:01:52.107Z,35.40
2019-04-30T12:04:22.617Z,36.00
2019-04-30T12:06:55.905Z,36.90
2019-04-30T12:09:54.325Z,35.00
2019-04-30T12:12:25.785Z,39.40
2019-04-30T12:14:56.279Z,39.60
2019-04-30T12:17:27.109Z,38.10
2019-04-30T12:19:58.677Z,39.60
2019-04-30T12:22:29.623Z,36.70
2019-04-30T12:25:04.889Z,38.60
2019-04-30T12:27:33.226Z,38.10
2019-04-30T12:30:06.788Z,35.80
2019-04-30T12:32:39.293Z,36.20
2019-04-30T12:35:11.487Z,38.90
2019-04-30T12:37:41.964Z,37.00
2019-04-30T12:40:25.852Z,38.40
2019-04-30T12:42:45.140Z,38.60
2019-04-30T12:45:15.858Z,36.90
2019-04-30T12:47:50.886Z,35.90
2019-04-30T12:50:26.518Z,37.70
2019-04-30T12:53:00.844Z,34.60
2019-04-30T12:55:49.074Z,36.50
2019-04-30T12:58:20.766Z,33.40
2019-04-30T13:00:51.335Z,35.60
2019-04-30T13:03:22.222Z,37.80
2019-04-30T13:05:53.623Z,35.10
2019-04-30T13:08:24.868Z,32.20
2019-04-30T13:10:56.409Z,35.50
2019-04-30T13:13:31.456Z,34.60
2019-04-30T13:16:00.056Z,35.70
2019-04-30T13:18:30.630Z,35.50
2019-04-30T13:21:01.205Z,35.20
2019-04-30T13:23:32.977Z,36.20
2019-04-30T13:26:03.490Z,37.60
2019-04-30T13:28:44.777Z,37.90
2019-04-30T13:31:15.230Z,39.50
2019-04-30T13:33:51.172Z,37.30
2019-04-30T13:36:22.048Z,35.70
2019-04-30T13:39:01.546Z,35.40
2019-04-30T13:41:51.233Z,35.30
2019-04-30T13:44:26.215Z,37.70
2019-04-30T13:46:58.270Z,34.80
2019-04-30T13:49:30.272Z,36.60
2019-04-30T13:52:01.296Z,35.00
2019-04-30T13:54:31.766Z,36.70
2019-04-30T13:57:03.571Z,38.30
2019-04-30T13:59:34.071Z,38.30
2019-04-30T14:02:04.759Z,37.60
2019-04-30T14:05:04.121Z,37.60
2019-04-30T14:08:05.541Z,38.50
2019-04-30T14:10:39.858Z,36.60
2019-04-30T14:13:11.104Z,33.80
2019-04-30T14:15:41.879Z,35.90
2019-04-30T14:18:12.522Z,37.40
2019-04-30T14:20:43.487Z,37.00
2019-04-30T14:23:13.935Z,37.00
2019-04-30T14:25:55.879Z,36.20
2019-04-30T14:28:16.723Z,36.80
2019-04-30T14:30:47.510Z,37.30
2019-04-30T14:33:25.940Z,37.90
2019-04-30T14:35:51.087Z,37.20
2019-04-30T14:38:21.488Z,37.10
2019-04-30T14:40:53.292Z,37.60
2019-04-30T14:43:33.727Z,36.50
2019-04-30T14:46:33.613Z,35.90
2019-04-30T14:49:34.166Z,36.20
2019-04-30T14:52:05.714Z,37.10
2019-04-30T14:54:46.367Z,36.80
2019-04-30T14:57:45.074Z,34.60
2019-04-30T15:00:33.875Z,35.90
2019-04-30T15:03:09.458Z,33.20
2019-04-30T15:05:48.458Z,32.10
2019-04-30T15:08:13.300Z,32.00
2019-04-30T15:10:43.810Z,33.80
2019-04-30T15:13:14.357Z,30.70
2019-04-30T15:15:44.981Z,31.80
2019-04-30T15:18:16.506Z,32.80
2019-04-30T15:20:49.600Z,32.20
2019-04-30T15:23:42.810Z,29.10
2019-04-30T15:26:22.242Z,30.10
2019-04-30T15:28:45.899Z,31.70
2019-04-30T15:31:18.355Z,31.80
2019-04-30T15:34:10.819Z,29.00
2019-04-30T15:36:40.562Z,32.80
2019-04-30T15:39:24.150Z,32.00
2019-04-30T15:41:54.769Z,32.20
2019-04-30T15:44:25.387Z,31.30
2019-04-30T15:46:56.354Z,32.30
2019-04-30T15:49:26.743Z,33.70
2019-04-30T15:51:57.471Z,33.30
2019-04-30T15:54:29.257Z,33.00
2019-04-30T15:57:00.502Z,33.60
2019-04-30T15:59:41.706Z,30.20
2019-04-30T16:02:23.818Z,31.40
2019-04-30T16:05:09.308Z,31.10
2019-04-30T16:07:46.902Z,30.30
2019-04-30T16:10:50.298Z,31.90
2019-04-30T16:13:22.445Z,31.60
2019-04-30T16:15:53.134Z,33.00
2019-04-30T16:18:58.682Z,33.50
2019-04-30T16:21:16.806Z,33.10
2019-04-30T16:27:49.763Z,33.40
2019-04-30T16:30:20.527Z,33.10
2019-04-30T16:32:51.059Z,33.50
2019-04-30T16:35:21.865Z,32.50
2019-04-30T16:37:52.359Z,31.90
2019-04-30T16:40:29.025Z,32.90
2019-04-30T16:42:59.838Z,33.20
2019-04-30T16:45:34.162Z,32.70
2019-04-30T16:48:05.233Z,32.30
2019-04-30T16:50:36.792Z,35.10
2019-04-30T16:53:10.956Z,33.20
2019-04-30T16:55:42.197Z,33.80
2019-04-30T16:58:13.454Z,35.40
2019-04-30T17:00:44.845Z,34.00
2019-04-30T17:03:22.386Z,34.70
2019-04-30T17:06:05.207Z,33.60
2019-04-30T17:08:40.536Z,33.50
2019-04-30T17:11:16.059Z,34.70
2019-04-30T17:13:56.046Z,36.10
2019-04-30T17:16:26.712Z,35.50
2019-04-30T17:18:59.092Z,38.30
2019-04-30T17:21:32.286Z,38.40
2019-04-30T17:24:08.856Z,37.60
2019-04-30T17:26:42.154Z,37.50
2019-04-30T17:29:15.043Z,39.40
2019-04-30T17:32:08.462Z,38.00
2019-04-30T17:34:41.425Z,40.20
2019-04-30T17:37:23.546Z,39.40
2019-04-30T17:40:00.426Z,39.30
2019-04-30T17:42:31.650Z,39.50
2019-04-30T17:45:03.405Z,40.30
2019-04-30T17:47:33.947Z,40.20
2019-04-30T17:50:04.911Z,39.50
2019-04-30T17:52:35.519Z,39.80
2019-04-30T17:55:09.434Z,39.10
2019-04-30T17:57:42.685Z,39.90
2019-04-30T18:04:52.802Z,40.60
2019-04-30T18:15:26.141Z,41.80
2019-04-30T18:18:17.891Z,40.50
2019-04-30T18:21:50.711Z,39.60
2019-04-30T18:24:59.274Z,40.10
2019-04-30T18:28:00.567Z,39.40
2019-04-30T18:30:52.149Z,40.60
2019-04-30T18:34:12.340Z,42.00
2019-04-30T18:36:59.323Z,43.10
2019-04-30T18:39:50.229Z,42.20
2019-04-30T18:42:29.132Z,44.60
2019-04-30T18:45:31.558Z,44.90
2019-04-30T18:48:04.629Z,47.80
2019-04-30T18:51:23.939Z,49.70
2019-04-30T18:53:56.655Z,50.00
2019-04-30T18:56:33.414Z,52.10
2019-04-30T18:59:04.349Z,53.40
2019-04-30T19:01:35.123Z,56.10
2019-04-30T19:04:19.561Z,55.80
2019-04-30T19:06:56.367Z,57.00
2019-04-30T19:09:58.883Z,56.90
2019-04-30T19:12:51.311Z,59.50
2019-04-30T19:16:14.874Z,60.00
2019-04-30T19:18:31.328Z,60.00
2019-04-30T19:21:15.055Z,61.40
2019-04-30T19:23:48.595Z,61.30
2019-04-30T19:26:50.676Z,61.80
2019-04-30T19:29:52.988Z,62.80
2019-04-30T19:32:39.057Z,64.20
2019-04-30T19:50:09.245Z,71.50
2019-04-30T19:52:41.202Z,70.30
2019-04-30T19:55:11.860Z,72.70
2019-04-30T19:57:45.215Z,75.50
2019-04-30T20:00:44.248Z,75.90
2019-04-30T20:03:19.591Z,76.90
2019-04-30T20:05:50.846Z,81.70
2019-04-30T20:08:23.431Z,83.10
2019-04-30T20:10:54.959Z,85.40
2019-04-30T20:13:33.997Z,88.80
2019-04-30T20:15:59.905Z,90.60
2019-04-30T20:18:33.515Z,91.40
2019-04-30T20:21:09.237Z,93.00
2019-04-30T20:23:39.763Z,93.90
2019-04-30T20:26:10.209Z,95.30
2019-04-30T20:29:05.186Z,96.50
2019-04-30T20:55:33.874Z,99.90
2019-04-30T21:10:04.683Z,99.90
2019-04-30T21:12:35.460Z,99.90
2019-04-30T21:15:20.339Z,99.90
2019-04-30T21:17:52.681Z,99.90
2019-04-30T21:20:29.146Z,99.90
2019-04-30T21:23:12.958Z,99.90
2019-04-30T21:25:48.895Z,99.90
2019-04-30T21:28:24.828Z,99.90
2019-04-30T21:31:22.486Z,99.90
2019-04-30T21:34:03.160Z,99.90
2019-04-30T21:36:35.959Z,99.90
2019-04-30T21:39:10.613Z,99.90
2019-04-30T21:41:49.517Z,99.90
2019-04-30T21:44:29.061Z,99.90
2019-04-30T21:47:17.085Z,99.90
2019-04-30T21:50:05.103Z,99.90
2019-04-30T21:52:51.000Z,99.90
2019-04-30T21:55:22.291Z,99.90
2019-04-30T21:57:53.267Z,99.90
2019-04-30T22:00:39.618Z,99.90
2019-04-30T22:03:11.506Z,99.90
2019-04-30T22:05:41.955Z,99.90
2019-04-30T22:08:12.434Z,99.90
2019-04-30T22:10:44.095Z,99.90
2019-04-30T22:13:14.520Z,99.90
2019-04-30T22:15:45.017Z,99.90
2019-04-30T22:18:15.442Z,99.90
2019-04-30T22:20:46.049Z,99.90
2019-04-30T22:23:16.471Z,99.90
2019-04-30T22:25:46.887Z,99.90
2019-04-30T22:28:17.256Z,99.90
2019-04-30T22:30:48.336Z,99.90
2019-04-30T22:33:19.810Z,99.90
2019-04-30T22:35:56.628Z,99.90
2019-04-30T22:38:30.362Z,99.90
2019-04-30T22:41:00.848Z,99.90
2019-04-30T22:43:31.258Z,99.90
2019-04-30T22:46:09.629Z,99.90
2019-04-30T22:48:40.160Z,99.90
2019-04-30T22:51:10.585Z,99.90
2019-04-30T22:53:41.083Z,99.90
2019-04-30T22:56:11.547Z,99.90
2019-04-30T22:58:42.049Z,99.90
2019-04-30T23:01:30.929Z,99.90
2019-04-30T23:04:05.404Z,99.90
2019-04-30T23:06:35.842Z,99.90
2019-04-30T23:09:08.813Z,99.90
2019-04-30T23:11:39.325Z,99.90
2019-04-30T23:14:09.914Z,99.90
2019-04-30T23:16:40.743Z,99.90
2019-04-30T23:19:13.057Z,99.90
2019-04-30T23:21:44.437Z,99.90
2019-04-30T23:24:15.302Z,99.90
2019-04-30T23:26:46.379Z,99.90
2019-04-30T23:29:17.494Z,99.90
2019-04-30T23:31:48.110Z,99.90
2019-04-30T23:34:20.623Z,99.90
2019-04-30T23:36:54.063Z,99.90
2019-04-30T23:39:24.859Z,99.90
2019-04-30T23:41:55.517Z,99.90
2019-04-30T23:44:26.080Z,99.90
2019-04-30T23:46:56.656Z,99.90
2019-04-30T23:49:27.124Z,99.90
2019-04-30T23:51:57.537Z,99.90
2019-04-30T23:54:28.267Z,99.90
2019-04-30T23:56:59.980Z,99.90
2019-04-30T23:59:31.122Z,99.90
